Aviation Digital Data Service (ADDS)

Output produced by METARs form (1826 UTC 23 January 2019)
found at http://aviationweather.gov/metar/data/
 
KDFW 231723Z 2318/2424 32017KT P6SM SKC 
     FM240300 25005KT P6SM SKC 
     FM240900 19007KT P6SM FEW250 
     FM242200 01008KT P6SM SCT200